Time;durP1;ratioP1;P1;durP2;ratioP2;P2;SDS_P1;SDS_P2;PMS_P1;PMS_P2;Temp;Humidity;BMP_temperature;BMP_pressure;BME280_temperature;BME280_humidity;BME280_pressure;Samples;Min_cycle;Max_cycle;Signal;HPM_P1;HPM_P2
2022/06/11 00:00:50;;;;;;;4.55;2.47;;;17.90;99.90;;;;;;5079305;28;20323;-66
2022/06/11 00:03:16;;;;;;;4.63;2.42;;;17.70;99.90;;;;;;5079111;28;20025;-67
2022/06/11 00:05:42;;;;;;;2.95;2.50;;;17.70;99.90;;;;;;5079126;28;20396;-66
2022/06/11 00:08:08;;;;;;;2.63;2.25;;;17.60;99.90;;;;;;5078306;28;20040;-65
2022/06/11 00:10:34;;;;;;;4.70;2.72;;;17.60;99.90;;;;;;5079028;28;20037;-66
2022/06/11 00:13:01;;;;;;;3.78;1.95;;;17.50;99.90;;;;;;5078902;28;20040;-66
2022/06/11 00:15:27;;;;;;;4.50;2.20;;;17.50;99.90;;;;;;5078880;28;20281;-65
2022/06/11 00:17:57;;;;;;;5.15;2.60;;;17.70;99.90;;;;;;5061448;28;20043;-66
2022/06/11 00:20:27;;;;;;;4.18;2.30;;;17.80;99.90;;;;;;5079690;28;20029;-66
2022/06/11 00:22:53;;;;;;;3.20;2.15;;;17.90;99.90;;;;;;5078853;28;20041;-66
2022/06/11 00:25:20;;;;;;;3.40;1.98;;;17.90;99.90;;;;;;5078891;28;20032;-67
2022/06/11 00:27:47;;;;;;;3.15;1.92;;;18.00;99.90;;;;;;5078828;28;20040;-67
2022/06/11 00:30:15;;;;;;;4.00;2.20;;;18.00;99.90;;;;;;5078718;28;20024;-67
2022/06/11 00:32:41;;;;;;;1.90;1.70;;;18.10;99.90;;;;;;5078679;28;20036;-66
2022/06/11 00:35:09;;;;;;;2.35;1.73;;;18.10;99.90;;;;;;5078622;28;20293;-66
2022/06/11 00:37:35;;;;;;;1.92;1.70;;;18.10;99.90;;;;;;5078483;28;20050;-66
2022/06/11 00:40:02;;;;;;;2.42;1.80;;;18.20;99.90;;;;;;5078581;28;20031;-66
2022/06/11 00:42:33;;;;;;;3.88;1.80;;;18.20;99.90;;;;;;5078462;28;20047;-66
2022/06/11 00:45:20;;;;;;;3.28;2.17;;;18.00;99.90;;;;;;5078495;28;20043;-68
2022/06/11 00:47:51;;;;;;;2.50;1.70;;;18.00;99.90;;;;;;5078492;28;20024;-66
2022/06/11 00:50:26;;;;;;;4.13;2.20;;;18.00;99.90;;;;;;5077652;28;20304;-67
2022/06/11 00:52:55;;;;;;;3.78;1.58;;;17.80;99.90;;;;;;5077356;28;20076;-66
2022/06/11 00:55:24;;;;;;;2.75;1.60;;;17.70;99.90;;;;;;5078158;28;20036;-66
2022/06/11 00:58:08;;;;;;;2.75;1.70;;;17.60;99.90;;;;;;5078247;28;20419;-66
2022/06/11 01:01:02;;;;;;;3.25;1.73;;;17.60;99.90;;;;;;5078120;28;20016;-67
2022/06/11 01:03:37;;;;;;;3.95;1.40;;;17.70;99.90;;;;;;5076481;28;20040;-66
2022/06/11 01:06:24;;;;;;;1.60;1.33;;;17.70;99.90;;;;;;5077667;28;20029;-66
2022/06/11 01:09:24;;;;;;;1.42;1.30;;;17.60;99.90;;;;;;5078002;28;20056;-66
2022/06/11 01:12:27;;;;;;;3.10;1.60;;;17.70;99.90;;;;;;5078246;28;20445;-66
2022/06/11 01:15:16;;;;;;;3.00;1.30;;;17.90;99.90;;;;;;5077790;28;20043;-66
2022/06/11 01:18:01;;;;;;;4.55;1.42;;;17.80;99.90;;;;;;5074083;28;20139;-67
2022/06/11 01:20:41;;;;;;;1.63;1.10;;;17.80;99.90;;;;;;5078335;28;20111;-67
2022/06/11 01:23:39;;;;;;;2.53;1.20;;;17.80;99.90;;;;;;5077764;28;20304;-66
2022/06/11 01:26:56;;;;;;;3.03;1.30;;;17.80;99.90;;;;;;5077256;28;20041;-67
2022/06/11 01:29:49;;;;;;;3.33;1.10;;;17.80;99.90;;;;;;5077155;28;20301;-67
2022/06/11 01:32:44;;;;;;;1.48;0.95;;;17.80;99.90;;;;;;5077436;28;20024;-67
2022/06/11 01:35:29;;;;;;;2.50;0.90;;;17.80;99.90;;;;;;5076912;28;20102;-66
2022/06/11 01:38:30;;;;;;;3.45;1.17;;;17.70;99.90;;;;;;5077466;28;20044;-64
2022/06/11 01:41:06;;;;;;;2.25;0.90;;;17.70;99.90;;;;;;5077356;28;20020;-67
2022/06/11 01:43:39;;;;;;;2.03;1.08;;;17.70;99.90;;;;;;5077400;28;20056;-67
2022/06/11 01:46:21;;;;;;;2.60;0.90;;;17.70;99.90;;;;;;5076550;28;20128;-67
2022/06/11 01:49:07;;;;;;;3.90;1.50;;;17.70;99.90;;;;;;5077282;28;20047;-66
2022/06/11 01:51:40;;;;;;;4.88;1.30;;;17.70;99.90;;;;;;5076947;28;20048;-66
2022/06/11 01:54:19;;;;;;;1.77;0.80;;;17.60;99.90;;;;;;5076382;28;20032;-66
2022/06/11 01:57:13;;;;;;;4.28;1.17;;;17.60;99.90;;;;;;5077154;28;20411;-66
2022/06/11 01:59:58;;;;;;;5.28;1.20;;;17.60;99.90;;;;;;5077128;28;20092;-67
2022/06/11 02:02:37;;;;;;;3.10;1.10;;;17.60;99.90;;;;;;5077053;28;20265;-66
2022/06/11 02:05:34;;;;;;;2.22;1.08;;;17.60;99.90;;;;;;5077081;28;20121;-66
2022/06/11 02:08:29;;;;;;;2.35;0.98;;;17.70;99.90;;;;;;5077440;28;20296;-66
2022/06/11 02:11:12;;;;;;;3.67;1.10;;;17.90;99.90;;;;;;5077621;28;20363;-66
2022/06/11 02:13:56;;;;;;;3.20;1.00;;;18.10;99.90;;;;;;5076354;28;20036;-66
2022/06/11 02:16:28;;;;;;;3.58;1.00;;;18.10;99.90;;;;;;5077151;28;20300;-66
2022/06/11 02:18:56;;;;;;;3.70;1.00;;;18.10;99.90;;;;;;5077004;28;20077;-67
2022/06/11 02:21:34;;;;;;;2.22;0.80;;;18.20;99.90;;;;;;5076804;28;20012;-65
2022/06/11 02:24:13;;;;;;;2.97;1.00;;;18.20;99.90;;;;;;5076941;28;20034;-65
2022/06/11 02:26:46;;;;;;;2.13;0.98;;;18.30;99.90;;;;;;5076827;28;20424;-66
2022/06/11 02:29:16;;;;;;;2.53;1.05;;;18.40;99.90;;;;;;5076837;28;20093;-66
2022/06/11 02:31:59;;;;;;;3.28;0.90;;;18.40;99.90;;;;;;5076768;28;20029;-66
2022/06/11 02:34:26;;;;;;;2.80;1.05;;;18.30;99.90;;;;;;5076764;28;20101;-66
2022/06/11 02:37:02;;;;;;;2.30;0.80;;;18.30;99.90;;;;;;5077079;28;20025;-66
2022/06/11 02:39:32;;;;;;;3.33;0.90;;;18.20;99.90;;;;;;5076752;28;20039;-65
2022/06/11 02:41:58;;;;;;;3.58;0.80;;;18.20;99.90;;;;;;5076002;28;20029;-63
2022/06/11 02:44:24;;;;;;;2.47;0.98;;;18.20;99.90;;;;;;5076027;28;20037;-66
2022/06/11 02:46:50;;;;;;;3.70;1.25;;;18.20;99.90;;;;;;5076596;28;20036;-64
2022/06/11 02:49:29;;;;;;;3.03;0.90;;;18.40;99.90;;;;;;5076598;28;20293;-65
2022/06/11 02:51:57;;;;;;;4.05;1.23;;;18.40;99.90;;;;;;5075736;28;20044;-66
2022/06/11 02:54:27;;;;;;;1.98;0.95;;;18.30;99.90;;;;;;5076537;28;20036;-65
2022/06/11 02:56:57;;;;;;;3.42;1.10;;;18.30;99.90;;;;;;5076749;28;20100;-65
2022/06/11 02:59:25;;;;;;;2.67;0.80;;;18.30;99.90;;;;;;5076631;28;20056;-64
2022/06/11 03:01:55;;;;;;;3.05;1.05;;;18.50;99.90;;;;;;5076429;28;20036;-65
2022/06/11 03:04:23;;;;;;;2.97;1.00;;;18.50;99.90;;;;;;5076493;28;20316;-65
2022/06/11 03:06:50;;;;;;;3.88;1.33;;;18.30;99.90;;;;;;5076444;28;20098;-65
2022/06/11 03:09:19;;;;;;;4.00;1.05;;;18.40;99.90;;;;;;5076433;28;20029;-66
2022/06/11 03:11:46;;;;;;;3.88;1.00;;;18.40;99.90;;;;;;5076363;28;20025;-64
2022/06/11 03:14:13;;;;;;;3.83;1.00;;;18.30;99.90;;;;;;5075852;28;20048;-63
2022/06/11 03:16:39;;;;;;;4.32;1.10;;;18.20;99.90;;;;;;5076338;28;20059;-63
2022/06/11 03:19:06;;;;;;;2.85;1.05;;;18.20;99.90;;;;;;5076395;28;20059;-65
2022/06/11 03:21:33;;;;;;;3.33;1.23;;;18.30;99.90;;;;;;5076759;28;20341;-64
2022/06/11 03:23:59;;;;;;;3.38;1.20;;;18.40;99.90;;;;;;5076360;28;20016;-65
2022/06/11 03:26:24;;;;;;;3.83;1.17;;;18.40;99.90;;;;;;5080251;28;20035;-65
2022/06/11 03:28:51;;;;;;;3.88;1.20;;;18.40;99.90;;;;;;5080458;28;20043;-65
2022/06/11 03:31:17;;;;;;;2.33;0.98;;;18.50;99.90;;;;;;5079784;28;20104;-65
2022/06/11 03:33:44;;;;;;;5.60;1.20;;;18.30;99.90;;;;;;5079820;28;20036;-65
2022/06/11 03:36:13;;;;;;;2.58;1.00;;;18.30;99.90;;;;;;5079697;28;20037;-65
2022/06/11 03:38:41;;;;;;;1.92;0.90;;;18.10;99.90;;;;;;5079674;28;20038;-66
2022/06/11 03:41:08;;;;;;;4.05;0.90;;;18.10;99.90;;;;;;5079505;28;20377;-66
2022/06/11 03:43:34;;;;;;;10.50;1.23;;;18.00;99.90;;;;;;5079591;28;20028;-66
2022/06/11 03:46:00;;;;;;;3.20;1.10;;;18.00;99.90;;;;;;5079673;28;20021;-66
2022/06/11 03:48:30;;;;;;;4.47;1.30;;;18.00;99.90;;;;;;5078611;28;20028;-63
2022/06/11 03:50:59;;;;;;;4.13;1.15;;;18.10;99.90;;;;;;5080120;28;20373;-64
2022/06/11 03:53:27;;;;;;;5.60;1.35;;;18.20;99.90;;;;;;5079381;28;20041;-63
2022/06/11 03:55:54;;;;;;;5.20;1.55;;;18.30;99.90;;;;;;5079276;28;20102;-62
2022/06/11 03:58:20;;;;;;;5.25;1.52;;;18.40;99.90;;;;;;5078385;28;20032;-61
2022/06/11 04:03:31;;;;;;;6.82;1.42;;;18.60;99.90;;;;;;5079284;28;20033;-62
2022/06/11 04:05:57;;;;;;;5.40;1.50;;;18.40;99.90;;;;;;5078596;28;20357;-62
2022/06/11 04:08:25;;;;;;;9.80;1.58;;;18.30;99.90;;;;;;5079218;28;20067;-62
2022/06/11 04:10:54;;;;;;;4.85;1.10;;;18.30;99.90;;;;;;5079147;28;20436;-64
2022/06/11 04:13:21;;;;;;;6.05;1.70;;;18.30;99.90;;;;;;5079133;28;20071;-61
2022/06/11 04:15:49;;;;;;;5.25;1.58;;;18.30;99.90;;;;;;5078263;28;20021;-60
2022/06/11 04:18:41;;;;;;;5.82;1.25;;;18.40;99.90;;;;;;5079019;28;20308;-60
2022/06/11 04:21:11;;;;;;;5.22;1.30;;;18.40;99.90;;;;;;5079023;28;20020;-61
2022/06/11 04:23:40;;;;;;;5.07;1.40;;;18.30;99.90;;;;;;5079411;28;20043;-61
2022/06/11 04:26:10;;;;;;;5.30;1.52;;;18.40;99.90;;;;;;5079462;28;20038;-61
2022/06/11 04:28:37;;;;;;;6.75;1.52;;;18.40;99.90;;;;;;5078066;28;20064;-62
2022/06/11 04:31:06;;;;;;;4.75;1.30;;;18.40;99.90;;;;;;5078610;28;20368;-62
2022/06/11 04:33:32;;;;;;;7.72;1.70;;;18.40;99.90;;;;;;5078676;28;20104;-63
2022/06/11 04:35:58;;;;;;;7.15;1.58;;;18.40;99.90;;;;;;5078079;28;20082;-62
2022/06/11 04:38:24;;;;;;;7.30;1.70;;;18.00;99.90;;;;;;5078510;28;20044;-61
2022/06/11 04:40:51;;;;;;;7.95;1.67;;;18.10;99.90;;;;;;5078423;28;20037;-64
2022/06/11 04:43:17;;;;;;;7.63;1.73;;;18.20;99.90;;;;;;5078483;28;20032;-63
2022/06/11 04:45:43;;;;;;;13.13;2.00;;;18.00;99.90;;;;;;5078409;28;20033;-63
2022/06/11 04:48:09;;;;;;;7.90;1.65;;;17.90;99.90;;;;;;5061136;28;20033;-64
2022/06/11 04:50:36;;;;;;;8.95;1.83;;;17.90;99.90;;;;;;5078395;28;20113;-63
2022/06/11 04:53:02;;;;;;;7.03;1.75;;;17.90;99.90;;;;;;5078189;28;20102;-63
2022/06/11 04:55:28;;;;;;;6.53;1.70;;;18.00;99.90;;;;;;5078222;28;20028;-64
2022/06/11 04:57:54;;;;;;;11.68;1.80;;;18.00;99.90;;;;;;5077998;28;20299;-64
2022/06/11 05:00:23;;;;;;;8.45;1.52;;;18.00;99.90;;;;;;5078152;28;20028;-64
2022/06/11 05:02:50;;;;;;;9.52;2.25;;;18.10;99.90;;;;;;5078202;28;20025;-63
2022/06/11 05:05:16;;;;;;;10.25;1.90;;;18.20;99.90;;;;;;5078090;28;20090;-64
2022/06/11 05:07:44;;;;;;;10.57;1.92;;;18.30;99.90;;;;;;5077212;28;20043;-63
2022/06/11 05:10:13;;;;;;;6.43;1.60;;;18.30;99.90;;;;;;5077892;28;20025;-65
2022/06/11 05:12:38;;;;;;;12.07;1.70;;;18.30;99.90;;;;;;5077900;28;20024;-62
2022/06/11 05:15:05;;;;;;;9.30;2.08;;;18.30;99.90;;;;;;5077224;28;20077;-62
2022/06/11 05:17:31;;;;;;;8.38;1.70;;;18.40;99.90;;;;;;5078009;28;20304;-61
2022/06/11 05:19:57;;;;;;;7.93;1.70;;;18.40;99.90;;;;;;5077769;28;20036;-61
2022/06/11 05:22:23;;;;;;;8.80;1.83;;;18.30;99.90;;;;;;5077995;28;20032;-62
2022/06/11 05:24:49;;;;;;;7.10;1.63;;;18.00;99.90;;;;;;5077716;28;20082;-62
2022/06/11 05:27:19;;;;;;;11.13;1.83;;;18.00;99.90;;;;;;5077684;28;20033;-61
2022/06/11 05:29:56;;;;;;;9.93;1.90;;;18.10;99.90;;;;;;5076929;28;20033;-62
2022/06/11 05:32:29;;;;;;;9.55;1.98;;;18.10;99.90;;;;;;5077501;28;20032;-63
2022/06/11 05:34:59;;;;;;;8.25;1.77;;;18.10;99.90;;;;;;5077384;28;20039;-62
2022/06/11 05:37:26;;;;;;;10.88;2.38;;;18.10;99.90;;;;;;5077433;28;20024;-62
2022/06/11 05:39:52;;;;;;;11.23;2.30;;;18.10;99.90;;;;;;5077386;28;20103;-61
2022/06/11 05:42:21;;;;;;;13.25;2.67;;;18.00;99.90;;;;;;5077329;28;20032;-63
2022/06/11 05:44:47;;;;;;;8.75;2.35;;;17.90;99.90;;;;;;5077236;28;20032;-63
2022/06/11 05:47:17;;;;;;;10.55;2.33;;;17.90;99.90;;;;;;5077515;28;20035;-64
2022/06/11 05:49:46;;;;;;;14.32;2.75;;;18.00;99.90;;;;;;5076459;28;20028;-62
2022/06/11 05:52:18;;;;;;;12.73;2.72;;;18.00;99.90;;;;;;5076995;28;20043;-63
2022/06/11 05:54:46;;;;;;;15.75;3.22;;;18.20;99.90;;;;;;5077147;28;20392;-62
2022/06/11 05:57:15;;;;;;;14.25;3.08;;;18.40;99.90;;;;;;5076398;28;20064;-62
2022/06/11 05:59:46;;;;;;;13.43;2.60;;;18.70;99.90;;;;;;5077090;28;20127;-65
2022/06/11 06:02:15;;;;;;;14.40;2.95;;;19.00;99.90;;;;;;5077002;28;20086;-65
2022/06/11 06:04:41;;;;;;;11.48;2.10;;;19.10;99.90;;;;;;5077018;28;20078;-64
2022/06/11 06:07:08;;;;;;;12.07;2.28;;;19.00;99.90;;;;;;5076280;28;20024;-61
2022/06/11 06:09:34;;;;;;;9.52;2.45;;;19.00;99.90;;;;;;5076991;28;20039;-65
2022/06/11 06:12:00;;;;;;;11.02;2.75;;;19.10;99.90;;;;;;5077238;28;20032;-64
2022/06/11 06:14:26;;;;;;;11.60;2.38;;;19.30;99.90;;;;;;5076922;28;20036;-62
2022/06/11 06:16:52;;;;;;;7.85;1.98;;;19.40;99.90;;;;;;5076924;28;20028;-65
2022/06/11 06:19:18;;;;;;;13.75;2.58;;;19.40;99.90;;;;;;5076352;28;20079;-66
2022/06/11 06:21:44;;;;;;;8.48;1.88;;;19.30;99.90;;;;;;5077099;28;20110;-64
2022/06/11 06:24:11;;;;;;;14.13;2.22;;;19.30;99.90;;;;;;5077290;28;20117;-62
2022/06/11 06:26:37;;;;;;;15.50;2.80;;;19.30;99.90;;;;;;5076777;28;20039;-64
2022/06/11 06:29:04;;;;;;;12.80;2.85;;;19.60;99.90;;;;;;5076775;28;20090;-63
2022/06/11 06:31:31;;;;;;;11.18;2.15;;;19.60;99.90;;;;;;5076085;28;20086;-63
2022/06/11 06:34:00;;;;;;;9.50;2.10;;;19.70;99.90;;;;;;5075890;28;20036;-60
2022/06/11 06:36:30;;;;;;;16.55;2.88;;;19.60;99.90;;;;;;5076662;28;20056;-63
2022/06/11 06:38:56;;;;;;;13.52;2.97;;;19.70;99.90;;;;;;5076755;28;20037;-60
2022/06/11 06:41:23;;;;;;;12.60;2.60;;;19.60;99.90;;;;;;5077086;28;20020;-62
2022/06/11 06:43:50;;;;;;;8.65;2.10;;;19.60;99.90;;;;;;5077139;28;20024;-61
2022/06/11 06:46:17;;;;;;;14.65;2.78;;;19.50;99.90;;;;;;5076581;28;20385;-65
2022/06/11 06:48:43;;;;;;;10.90;2.55;;;19.70;99.90;;;;;;5077120;28;20040;-63
2022/06/11 06:51:10;;;;;;;11.68;3.05;;;19.70;99.90;;;;;;5076465;28;20028;-62
2022/06/11 06:53:37;;;;;;;10.02;2.38;;;19.70;99.90;;;;;;5076391;28;20060;-63
2022/06/11 06:56:04;;;;;;;9.13;2.50;;;19.80;99.90;;;;;;5076452;28;20029;-66
2022/06/11 06:58:29;;;;;;;17.17;3.38;;;20.10;99.90;;;;;;5076475;28;20170;-64
2022/06/11 07:00:55;;;;;;;16.25;3.33;;;20.20;99.90;;;;;;5078782;28;20112;-62
2022/06/11 07:03:21;;;;;;;13.43;3.10;;;20.50;99.90;;;;;;5080692;28;20045;-65
2022/06/11 07:05:48;;;;;;;14.57;2.90;;;20.40;99.90;;;;;;5079512;28;20123;-63
2022/06/11 07:08:15;;;;;;;19.50;3.25;;;20.20;99.90;;;;;;5079438;28;20028;-67
2022/06/11 07:10:47;;;;;;;13.15;2.80;;;20.00;99.90;;;;;;5046183;28;20178;-63
2022/06/11 07:13:13;;;;;;;18.52;3.25;;;19.50;99.90;;;;;;5080212;28;20104;-65
2022/06/11 07:15:40;;;;;;;17.42;3.53;;;18.80;99.90;;;;;;5079280;28;20167;-62
2022/06/11 07:18:14;;;;;;;17.10;3.70;;;18.90;99.90;;;;;;5079395;28;20025;-63
2022/06/11 07:20:42;;;;;;;23.70;3.55;;;19.40;99.90;;;;;;5079938;28;20021;-65
2022/06/11 07:23:19;;;;;;;14.95;3.08;;;19.40;99.90;;;;;;5079985;28;20043;-65
2022/06/11 07:25:49;;;;;;;17.48;3.15;;;18.90;99.90;;;;;;5079858;28;20396;-66
2022/06/11 07:28:40;;;;;;;13.02;2.40;;;18.90;99.90;;;;;;5079055;28;20345;-63
2022/06/11 07:31:06;;;;;;;11.95;2.85;;;19.20;99.90;;;;;;5079856;28;20125;-64
2022/06/11 07:33:32;;;;;;;14.57;3.03;;;19.40;99.90;;;;;;5080061;28;20093;-63
2022/06/11 07:35:58;;;;;;;9.27;2.97;;;19.60;99.90;;;;;;5079433;28;20044;-64
2022/06/11 07:38:24;;;;;;;15.18;2.92;;;19.30;99.90;;;;;;5079034;28;20059;-61
2022/06/11 07:40:50;;;;;;;15.85;3.67;;;19.60;99.90;;;;;;5079797;28;20029;-61
2022/06/11 07:43:17;;;;;;;12.60;2.72;;;19.90;99.90;;;;;;5079654;28;20025;-63
2022/06/11 07:45:44;;;;;;;12.93;2.80;;;20.00;99.90;;;;;;5079562;28;20064;-64
2022/06/11 07:48:12;;;;;;;19.30;2.97;;;19.60;99.90;;;;;;5079562;28;20047;-66
2022/06/11 07:50:41;;;;;;;17.08;3.30;;;19.40;99.90;;;;;;5062319;28;20036;-65
2022/06/11 07:53:08;;;;;;;14.13;2.60;;;19.20;99.90;;;;;;5079275;28;20048;-65
2022/06/11 07:55:37;;;;;;;12.48;3.33;;;19.20;99.90;;;;;;5079442;28;20028;-65
2022/06/11 07:58:04;;;;;;;16.40;3.00;;;19.40;99.90;;;;;;5079310;28;20024;-63
2022/06/11 08:00:35;;;;;;;15.02;2.80;;;19.40;99.90;;;;;;5079291;28;20346;-65
2022/06/11 08:03:01;;;;;;;15.00;2.47;;;19.60;99.90;;;;;;5079277;28;20043;-66
2022/06/11 08:05:27;;;;;;;17.05;3.33;;;19.50;99.90;;;;;;5079141;28;20070;-65
2022/06/11 08:07:53;;;;;;;17.20;3.22;;;19.30;99.90;;;;;;5078435;28;20079;-67
2022/06/11 08:10:21;;;;;;;13.13;3.13;;;19.30;99.90;;;;;;5079072;28;20033;-65
2022/06/11 08:12:47;;;;;;;16.80;3.15;;;19.10;99.90;;;;;;5078183;28;20158;-64
2022/06/11 08:15:13;;;;;;;12.45;2.83;;;19.40;99.90;;;;;;5078924;28;20131;-64
2022/06/11 08:17:42;;;;;;;15.10;3.28;;;19.50;99.90;;;;;;5078935;28;20027;-63
2022/06/11 08:20:11;;;;;;;14.30;3.17;;;19.50;99.90;;;;;;5078921;28;20056;-63
2022/06/11 08:22:37;;;;;;;14.52;2.60;;;19.60;99.90;;;;;;5078123;28;20377;-63
2022/06/11 08:25:04;;;;;;;12.18;2.40;;;19.60;99.90;;;;;;5078719;28;20037;-64
2022/06/11 08:27:30;;;;;;;15.55;3.00;;;19.40;99.90;;;;;;5077481;28;20153;-63
2022/06/11 08:29:56;;;;;;;16.63;2.95;;;19.30;99.90;;;;;;5078399;28;20036;-66
2022/06/11 08:32:22;;;;;;;20.20;2.75;;;19.30;99.90;;;;;;5077695;28;20040;-64
2022/06/11 08:34:47;;;;;;;17.55;3.30;;;19.40;99.90;;;;;;5077913;28;20040;-63
2022/06/11 08:37:14;;;;;;;14.43;2.78;;;19.70;99.90;;;;;;5078088;28;20032;-66
2022/06/11 08:39:41;;;;;;;14.25;2.78;;;19.80;99.90;;;;;;5078153;28;20021;-63
2022/06/11 08:42:21;;;;;;;14.90;3.05;;;20.00;99.90;;;;;;5060473;28;20114;-63
2022/06/11 08:44:47;;;;;;;12.98;2.83;;;19.70;99.90;;;;;;5077452;28;20040;-63
2022/06/11 08:47:15;;;;;;;15.27;2.80;;;19.30;99.90;;;;;;5076975;28;20036;-65
2022/06/11 08:49:45;;;;;;;15.30;2.80;;;19.00;99.90;;;;;;5077714;28;20040;-64
2022/06/11 08:52:19;;;;;;;15.02;3.08;;;19.10;99.90;;;;;;5077481;28;20048;-61
2022/06/11 08:54:47;;;;;;;15.23;3.17;;;19.70;99.90;;;;;;5078159;28;20112;-63
2022/06/11 08:57:34;;;;;;;11.32;2.40;;;19.60;99.90;;;;;;5078196;28;20047;-64
2022/06/11 09:00:15;;;;;;;13.20;2.55;;;19.60;99.90;;;;;;5077467;28;20028;-64
2022/06/11 09:02:55;;;;;;;13.02;2.72;;;19.70;99.90;;;;;;5078331;28;20350;-65
2022/06/11 09:05:42;;;;;;;13.57;2.70;;;19.70;99.90;;;;;;5077350;28;20042;-63
2022/06/11 09:08:56;;;;;;;14.63;2.75;;;19.70;99.90;;;;;;5078048;28;20037;-62
2022/06/11 09:11:37;;;;;;;;;;;20.00;99.90;;;;;;5077446;28;20044;-65
2022/06/11 09:14:18;;;;;;;17.75;2.88;;;20.20;99.90;;;;;;5077420;28;19966;-61
2022/06/11 09:17:07;;;;;;;11.63;2.83;;;20.30;99.90;;;;;;5077793;28;20277;-63
2022/06/11 09:19:52;;;;;;;12.82;2.83;;;20.20;99.90;;;;;;5077053;28;20411;-60
2022/06/11 09:22:27;;;;;;;12.63;2.63;;;20.30;99.90;;;;;;5076751;28;20047;-62
2022/06/11 09:25:14;;;;;;;10.68;2.60;;;19.80;99.90;;;;;;5077614;28;20401;-63
2022/06/11 09:27:47;;;;;;;9.70;2.40;;;19.80;99.90;;;;;;5076914;28;20020;-63
2022/06/11 09:30:24;;;;;;;9.73;2.05;;;19.80;99.90;;;;;;5077570;28;20055;-64
2022/06/11 09:32:56;;;;;;;7.88;2.17;;;20.10;99.90;;;;;;5076777;28;20043;-65
2022/06/11 09:35:30;;;;;;;11.20;2.13;;;19.90;99.90;;;;;;5077384;28;20090;-62
2022/06/11 09:38:18;;;;;;;11.30;1.95;;;20.20;99.90;;;;;;5077432;28;20029;-64
2022/06/11 09:41:05;;;;;;;8.82;2.10;;;20.40;99.90;;;;;;5077312;28;20024;-63
2022/06/11 09:44:05;;;;;;;8.23;2.03;;;20.90;99.90;;;;;;5077174;28;20364;-65
2022/06/11 09:46:47;;;;;;;8.32;2.28;;;21.40;99.90;;;;;;5068466;28;20056;-62
2022/06/11 09:49:24;;;;;;;10.23;1.75;;;21.00;99.90;;;;;;5077467;28;20024;-65
2022/06/11 09:52:20;;;;;;;8.40;1.80;;;21.00;99.90;;;;;;5076675;28;20044;-62
2022/06/11 09:55:29;;;;;;;6.55;1.60;;;21.20;99.90;;;;;;5077031;28;20032;-62
2022/06/11 09:58:26;;;;;;;5.90;1.40;;;21.30;99.90;;;;;;5077168;28;20067;-66
2022/06/11 10:01:01;;;;;;;9.82;2.05;;;21.20;99.90;;;;;;5077155;28;20307;-62
2022/06/11 10:03:43;;;;;;;8.60;1.95;;;21.00;99.90;;;;;;5077115;28;20024;-65
2022/06/11 10:06:18;;;;;;;8.38;2.22;;;20.90;99.90;;;;;;5077207;28;20032;-65
2022/06/11 10:08:53;;;;;;;11.57;1.75;;;20.70;99.90;;;;;;5076994;28;20052;-63
2022/06/11 10:11:44;;;;;;;8.90;2.25;;;20.80;99.90;;;;;;5077070;28;20277;-60
2022/06/11 10:14:30;;;;;;;10.45;2.28;;;20.70;99.90;;;;;;5077103;28;20067;-63
2022/06/11 10:17:05;;;;;;;10.23;2.00;;;20.70;99.90;;;;;;5076876;28;20467;-64
2022/06/11 10:19:53;;;;;;;10.93;2.08;;;21.00;99.90;;;;;;5076848;28;20035;-65
2022/06/11 10:22:30;;;;;;;11.65;2.50;;;21.30;99.90;;;;;;5076061;28;20304;-62
2022/06/11 10:25:08;;;;;;;9.35;2.15;;;21.60;99.90;;;;;;5076839;28;20093;-65
2022/06/11 10:27:40;;;;;;;8.05;1.90;;;21.30;99.90;;;;;;5076834;28;20362;-65
2022/06/11 10:30:40;;;;;;;8.88;1.92;;;21.50;99.90;;;;;;5076907;28;20097;-62
2022/06/11 10:33:16;;;;;;;12.13;2.30;;;21.80;99.90;;;;;;5076731;28;20078;-63
2022/06/11 10:35:56;;;;;;;11.10;2.35;;;22.00;99.90;;;;;;5079532;28;20079;-63
2022/06/11 10:38:33;;;;;;;8.73;1.80;;;22.20;99.90;;;;;;5080952;28;20108;-68
2022/06/11 10:41:01;;;;;;;9.10;1.70;;;22.40;99.90;;;;;;5080883;28;20024;-66
2022/06/11 10:43:48;;;;;;;7.40;1.90;;;22.40;99.90;;;;;;5080826;28;20025;-65
2022/06/11 10:46:14;;;;;;;10.18;1.88;;;22.40;99.90;;;;;;5080750;28;20085;-65
2022/06/11 10:48:41;;;;;;;12.50;2.30;;;22.00;99.90;;;;;;5080095;28;20029;-67
2022/06/11 10:51:23;;;;;;;8.95;2.08;;;21.50;99.90;;;;;;5080572;28;20064;-63
2022/06/11 10:53:58;;;;;;;6.63;1.65;;;21.80;99.90;;;;;;5079782;28;20040;-65
2022/06/11 10:56:36;;;;;;;11.68;2.20;;;22.10;99.90;;;;;;5080676;28;20296;-62
2022/06/11 10:59:09;;;;;;;8.35;1.52;;;22.10;99.90;;;;;;5080506;28;20036;-65
2022/06/11 11:01:44;;;;;;;11.35;1.80;;;22.30;99.90;;;;;;5080442;28;20056;-66
2022/06/11 11:04:28;;;;;;;10.35;2.05;;;22.00;99.90;;;;;;5080455;28;20384;-62
2022/06/11 11:07:19;;;;;;;8.98;1.85;;;22.30;99.90;;;;;;5080432;28;20123;-62
2022/06/11 11:09:46;;;;;;;9.13;2.08;;;23.60;99.90;;;;;;5080354;28;20036;-64
2022/06/11 11:12:25;;;;;;;9.50;1.88;;;23.90;99.90;;;;;;5080467;28;20033;-63
2022/06/11 11:15:19;;;;;;;14.93;2.30;;;25.00;99.90;;;;;;5080088;28;20039;-64
2022/06/11 11:18:18;;;;;;;6.85;1.80;;;25.50;99.90;;;;;;5079347;28;20036;-62
2022/06/11 11:20:46;;;;;;;6.50;1.80;;;26.30;99.90;;;;;;5080399;28;20328;-65
2022/06/11 11:23:17;;;;;;;8.32;1.88;;;26.10;99.90;;;;;;5080282;28;20404;-63
2022/06/11 11:25:53;;;;;;;7.57;1.80;;;27.00;99.90;;;;;;5079829;28;20060;-66
2022/06/11 11:28:57;;;;;;;7.63;1.42;;;27.50;99.90;;;;;;5079856;28;20588;-64
2022/06/11 11:31:25;;;;;;;5.97;1.60;;;28.10;99.90;;;;;;5078921;28;20044;-61
2022/06/11 11:34:14;;;;;;;6.05;1.23;;;27.40;99.90;;;;;;5079605;28;20040;-63
2022/06/11 11:36:40;;;;;;;7.78;1.60;;;27.70;99.90;;;;;;5079602;28;20296;-64
2022/06/11 11:39:12;;;;;;;6.88;1.75;;;28.90;99.90;;;;;;5080254;28;20025;-62
2022/06/11 11:41:49;;;;;;;6.82;1.75;;;29.40;99.90;;;;;;5062060;28;20083;-64
2022/06/11 11:44:20;;;;;;;5.97;1.52;;;30.00;99.90;;;;;;5079782;28;20029;-63
2022/06/11 11:46:55;;;;;;;6.28;1.90;;;30.10;99.90;;;;;;5079388;28;20349;-62
2022/06/11 11:49:30;;;;;;;7.50;1.60;;;29.40;99.90;;;;;;5079512;28;20119;-67
2022/06/11 11:52:15;;;;;;;6.97;1.65;;;28.80;99.90;;;;;;5079224;28;20110;-64
2022/06/11 11:55:10;;;;;;;5.55;1.75;;;29.60;99.90;;;;;;5079446;28;20032;-66
2022/06/11 11:57:38;;;;;;;6.40;1.67;;;29.60;99.40;;;;;;5079654;28;20028;-65
2022/06/11 12:00:22;;;;;;;6.85;1.83;;;28.40;99.90;;;;;;5079325;28;20032;-66
2022/06/11 12:02:52;;;;;;;6.65;1.52;;;29.10;99.90;;;;;;5078596;28;20315;-62
2022/06/11 12:05:37;;;;;;;9.52;1.90;;;31.30;98.10;;;;;;5079228;28;20067;-66
2022/06/11 12:08:20;;;;;;;6.82;1.70;;;32.90;94.50;;;;;;5078464;28;20348;-65
2022/06/11 12:10:52;;;;;;;8.52;2.25;;;32.30;93.50;;;;;;5079464;28;20036;-64
2022/06/11 12:13:38;;;;;;;;;;;32.00;92.40;;;;;;5079075;28;20043;-63
2022/06/11 12:16:06;;;;;;;8.18;2.08;;;31.20;93.30;;;;;;5078372;28;19952;-66
2022/06/11 12:18:42;;;;;;;7.97;1.88;;;31.30;92.50;;;;;;5062192;28;20379;-67
2022/06/11 12:21:21;;;;;;;8.55;1.60;;;32.10;91.60;;;;;;5079293;28;20112;-63
2022/06/11 12:23:51;;;;;;;6.65;1.83;;;33.10;90.90;;;;;;5078951;28;20029;-62
2022/06/11 12:26:21;;;;;;;7.53;1.52;;;34.20;88.80;;;;;;5078769;28;20115;-63
2022/06/11 12:29:06;;;;;;;6.47;1.90;;;35.60;80.70;;;;;;5078841;28;20040;-65
2022/06/11 12:31:34;;;;;;;6.93;1.80;;;31.90;85.50;;;;;;5078713;28;20024;-64
2022/06/11 12:34:01;;;;;;;6.53;1.70;;;30.40;90.90;;;;;;5079323;28;20028;-65
2022/06/11 12:36:33;;;;;;;7.43;1.70;;;30.70;90.40;;;;;;5078501;28;20090;-61
2022/06/11 12:39:17;;;;;;;5.78;1.80;;;29.80;90.70;;;;;;5078611;28;20074;-61
2022/06/11 12:42:00;;;;;;;6.45;1.70;;;29.90;90.90;;;;;;5077784;28;20430;-66
2022/06/11 12:45:02;;;;;;;7.47;1.65;;;28.70;92.20;;;;;;5078408;28;20040;-63
2022/06/11 12:47:38;;;;;;;5.17;1.47;;;29.40;92.30;;;;;;5078663;28;20131;-66
2022/06/11 12:50:26;;;;;;;5.65;1.52;;;31.00;90.60;;;;;;5077586;28;20365;-65
2022/06/11 12:53:23;;;;;;;6.43;1.63;;;31.90;89.50;;;;;;5077414;28;20053;-66
2022/06/11 12:56:17;;;;;;;8.60;1.98;;;30.50;89.80;;;;;;5074489;28;20044;-64
2022/06/11 12:58:57;;;;;;;4.93;1.55;;;28.70;93.40;;;;;;5077942;28;20028;-63
2022/06/11 13:01:43;;;;;;;7.63;1.90;;;27.80;95.30;;;;;;5077355;28;20410;-63
2022/06/11 13:04:26;;;;;;;5.60;1.75;;;28.10;95.00;;;;;;5077890;28;20044;-63
2022/06/11 13:07:11;;;;;;;6.53;1.63;;;28.50;94.20;;;;;;5078076;28;20036;-66
2022/06/11 13:10:08;;;;;;;7.72;1.98;;;29.60;92.60;;;;;;5078004;28;20354;-61
2022/06/11 13:12:37;;;;;;;7.03;2.00;;;30.80;91.10;;;;;;5078035;28;20381;-63
2022/06/11 13:15:25;;;;;;;9.15;1.63;;;30.90;90.70;;;;;;5078119;28;20067;-63
2022/06/11 13:18:12;;;;;;;7.45;1.80;;;29.80;91.50;;;;;;5077803;28;20431;-65
2022/06/11 13:20:55;;;;;;;3.90;1.10;;;30.70;91.70;;;;;;5077821;28;20024;-65